sensor_id;sensor_type;location;lat;lon;timestamp;pressure;altitude;pressure_sealevel;temperature;humidity
7730;BME280;3908;52.310;7.230;2023-03-01T00:02:30;51174.41;;;-145.83;100.00
7730;BME280;3908;52.310;7.230;2023-03-01T00:05:17;51201.78;;;-145.83;100.00
7730;BME280;3908;52.310;7.230;2023-03-01T00:08:04;51211.56;;;-145.83;100.00
7730;BME280;3908;52.310;7.230;2023-03-01T00:11:01;51201.78;;;-145.83;100.00
7730;BME280;3908;52.310;7.230;2023-03-01T00:13:50;51197.88;;;-145.83;100.00
7730;BME280;3908;52.310;7.230;2023-03-01T00:16:39;51195.91;;;-145.83;100.00
7730;BME280;3908;52.310;7.230;2023-03-01T00:19:27;51217.44;;;-145.83;100.00
7730;BME280;3908;52.310;7.230;2023-03-01T00:22:14;51199.81;;;-145.83;100.00
7730;BME280;3908;52.310;7.230;2023-03-01T00:25:01;51158.75;;;-145.83;100.00
7730;BME280;3908;52.310;7.230;2023-03-01T00:27:49;51172.44;;;-145.83;100.00
7730;BME280;3908;52.310;7.230;2023-03-01T00:30:36;51172.44;;;-145.83;100.00
7730;BME280;3908;52.310;7.230;2023-03-01T00:33:23;51180.25;;;-145.83;100.00
7730;BME280;3908;52.310;7.230;2023-03-01T00:36:12;51192.00;;;-145.83;100.00
7730;BME280;3908;52.310;7.230;2023-03-01T00:39:00;51197.88;;;-145.83;100.00
7730;BME280;3908;52.310;7.230;2023-03-01T00:41:47;51186.13;;;-145.83;100.00
7730;BME280;3908;52.310;7.230;2023-03-01T00:44:36;51168.53;;;-145.83;100.00
7730;BME280;3908;52.310;7.230;2023-03-01T00:47:23;51162.66;;;-145.83;100.00
7730;BME280;3908;52.310;7.230;2023-03-01T00:50:11;51170.47;;;-145.83;100.00
7730;BME280;3908;52.310;7.230;2023-03-01T00:52:58;51213.50;;;-145.83;100.00
7730;BME280;3908;52.310;7.230;2023-03-01T00:55:45;51160.69;;;-145.83;100.00
7730;BME280;3908;52.310;7.230;2023-03-01T00:58:32;51193.97;;;-145.83;100.00
7730;BME280;3908;52.310;7.230;2023-03-01T01:01:22;51168.53;;;-145.83;100.00
7730;BME280;3908;52.310;7.230;2023-03-01T01:04:12;51164.63;;;-145.83;100.00
7730;BME280;3908;52.310;7.230;2023-03-01T01:06:59;51162.66;;;-145.83;100.00
7730;BME280;3908;52.310;7.230;2023-03-01T01:09:46;51174.41;;;-145.83;100.00
7730;BME280;3908;52.310;7.230;2023-03-01T01:12:33;51190.03;;;-145.83;100.00
7730;BME280;3908;52.310;7.230;2023-03-01T01:15:20;51190.03;;;-145.83;100.00
7730;BME280;3908;52.310;7.230;2023-03-01T01:18:08;51186.13;;;-145.83;100.00
7730;BME280;3908;52.310;7.230;2023-03-01T01:20:56;51190.03;;;-145.83;100.00
7730;BME280;3908;52.310;7.230;2023-03-01T01:23:44;51182.22;;;-145.83;100.00
7730;BME280;3908;52.310;7.230;2023-03-01T01:26:33;51197.88;;;-145.83;100.00
7730;BME280;3908;52.310;7.230;2023-03-01T01:29:20;51182.22;;;-145.83;100.00
7730;BME280;3908;52.310;7.230;2023-03-01T01:32:07;51182.22;;;-145.83;100.00
7730;BME280;3908;52.310;7.230;2023-03-01T01:34:56;51221.34;;;-145.83;100.00
7730;BME280;3908;52.310;7.230;2023-03-01T01:37:43;51152.88;;;-145.83;100.00
7730;BME280;3908;52.310;7.230;2023-03-01T01:40:29;51178.31;;;-145.83;100.00
7730;BME280;3908;52.310;7.230;2023-03-01T01:43:20;51213.50;;;-145.83;100.00
7730;BME280;3908;52.310;7.230;2023-03-01T01:46:16;51201.78;;;-145.83;100.00
7730;BME280;3908;52.310;7.230;2023-03-01T01:49:09;51186.13;;;-145.83;100.00
7730;BME280;3908;52.310;7.230;2023-03-01T01:52:07;51203.72;;;-145.83;100.00
7730;BME280;3908;52.310;7.230;2023-03-01T01:54:58;51199.81;;;-145.83;100.00
7730;BME280;3908;52.310;7.230;2023-03-01T01:57:49;51154.84;;;-145.83;100.00
7730;BME280;3908;52.310;7.230;2023-03-01T02:00:38;51192.00;;;-145.83;100.00
7730;BME280;3908;52.310;7.230;2023-03-01T02:03:29;51184.19;;;-145.83;100.00
7730;BME280;3908;52.310;7.230;2023-03-01T02:06:21;51174.41;;;-145.83;100.00
7730;BME280;3908;52.310;7.230;2023-03-01T02:09:16;51160.69;;;-145.83;100.00
7730;BME280;3908;52.310;7.230;2023-03-01T02:12:06;51197.88;;;-145.83;100.00
7730;BME280;3908;52.310;7.230;2023-03-01T02:14:53;51166.56;;;-145.83;100.00
7730;BME280;3908;52.310;7.230;2023-03-01T02:17:41;51180.25;;;-145.83;100.00
7730;BME280;3908;52.310;7.230;2023-03-01T02:20:33;51168.53;;;-145.83;100.00
7730;BME280;3908;52.310;7.230;2023-03-01T02:23:22;51178.31;;;-145.83;100.00
7730;BME280;3908;52.310;7.230;2023-03-01T02:26:15;51197.88;;;-145.83;100.00
7730;BME280;3908;52.310;7.230;2023-03-01T02:29:07;51190.03;;;-145.83;100.00
7730;BME280;3908;52.310;7.230;2023-03-01T02:31:56;51188.09;;;-145.83;100.00
7730;BME280;3908;52.310;7.230;2023-03-01T02:34:44;51192.00;;;-145.83;100.00
7730;BME280;3908;52.310;7.230;2023-03-01T02:37:32;51190.03;;;-145.83;100.00
7730;BME280;3908;52.310;7.230;2023-03-01T02:40:19;51195.91;;;-145.83;100.00
7730;BME280;3908;52.310;7.230;2023-03-01T02:43:10;51160.69;;;-145.83;100.00
7730;BME280;3908;52.310;7.230;2023-03-01T02:46:03;51221.34;;;-145.83;100.00
7730;BME280;3908;52.310;7.230;2023-03-01T02:48:52;51193.97;;;-145.83;100.00
7730;BME280;3908;52.310;7.230;2023-03-01T02:51:47;51225.25;;;-145.83;100.00
7730;BME280;3908;52.310;7.230;2023-03-01T02:54:40;51190.03;;;-145.83;100.00
7730;BME280;3908;52.310;7.230;2023-03-01T02:57:31;51192.00;;;-145.83;100.00
7730;BME280;3908;52.310;7.230;2023-03-01T03:00:21;51164.63;;;-145.83;100.00
7730;BME280;3908;52.310;7.230;2023-03-01T03:03:13;51158.75;;;-145.83;100.00
7730;BME280;3908;52.310;7.230;2023-03-01T03:06:00;51172.44;;;-145.83;100.00
7730;BME280;3908;52.310;7.230;2023-03-01T03:08:47;51211.56;;;-145.83;100.00
7730;BME280;3908;52.310;7.230;2023-03-01T03:11:34;51213.50;;;-145.83;100.00
7730;BME280;3908;52.310;7.230;2023-03-01T03:14:22;51193.97;;;-145.83;100.00
7730;BME280;3908;52.310;7.230;2023-03-01T03:17:09;51168.53;;;-145.83;100.00
7730;BME280;3908;52.310;7.230;2023-03-01T03:19:57;51176.34;;;-145.83;100.00
7730;BME280;3908;52.310;7.230;2023-03-01T03:22:45;51170.47;;;-145.83;100.00
7730;BME280;3908;52.310;7.230;2023-03-01T03:25:32;51178.31;;;-145.83;100.00
7730;BME280;3908;52.310;7.230;2023-03-01T03:28:23;51199.81;;;-145.83;100.00
7730;BME280;3908;52.310;7.230;2023-03-01T03:31:10;51182.22;;;-145.83;100.00
7730;BME280;3908;52.310;7.230;2023-03-01T03:33:57;51176.34;;;-145.83;100.00
7730;BME280;3908;52.310;7.230;2023-03-01T03:36:45;51188.09;;;-145.83;100.00
7730;BME280;3908;52.310;7.230;2023-03-01T03:39:32;51168.53;;;-145.83;100.00
7730;BME280;3908;52.310;7.230;2023-03-01T03:42:20;51186.13;;;-145.83;100.00
7730;BME280;3908;52.310;7.230;2023-03-01T03:45:08;51166.56;;;-145.83;100.00
7730;BME280;3908;52.310;7.230;2023-03-01T03:47:56;51190.03;;;-145.83;100.00
7730;BME280;3908;52.310;7.230;2023-03-01T03:50:48;51170.47;;;-145.83;100.00
7730;BME280;3908;52.310;7.230;2023-03-01T03:53:37;51145.06;;;-145.83;100.00
7730;BME280;3908;52.310;7.230;2023-03-01T03:56:24;51148.97;;;-145.83;100.00
7730;BME280;3908;52.310;7.230;2023-03-01T03:59:11;51156.78;;;-145.83;100.00
7730;BME280;3908;52.310;7.230;2023-03-01T04:01:58;51203.72;;;-145.83;100.00
7730;BME280;3908;52.310;7.230;2023-03-01T04:04:46;51197.88;;;-145.83;100.00
7730;BME280;3908;52.310;7.230;2023-03-01T04:07:35;51192.00;;;-145.83;100.00
7730;BME280;3908;52.310;7.230;2023-03-01T04:10:24;51192.00;;;-145.83;100.00
7730;BME280;3908;52.310;7.230;2023-03-01T04:13:15;51182.22;;;-145.83;100.00
7730;BME280;3908;52.310;7.230;2023-03-01T04:16:02;51123.53;;;-145.83;100.00
7730;BME280;3908;52.310;7.230;2023-03-01T04:18:50;51168.53;;;-145.83;100.00
7730;BME280;3908;52.310;7.230;2023-03-01T04:21:37;51162.66;;;-145.83;100.00
7730;BME280;3908;52.310;7.230;2023-03-01T04:24:24;51178.31;;;-145.83;100.00
7730;BME280;3908;52.310;7.230;2023-03-01T04:27:13;51164.63;;;-145.83;100.00
7730;BME280;3908;52.310;7.230;2023-03-01T04:30:00;51150.91;;;-145.83;100.00
7730;BME280;3908;52.310;7.230;2023-03-01T04:32:47;51213.50;;;-145.83;100.00
7730;BME280;3908;52.310;7.230;2023-03-01T04:35:36;51148.97;;;-145.83;100.00
7730;BME280;3908;52.310;7.230;2023-03-01T04:38:23;51160.69;;;-145.83;100.00
7730;BME280;3908;52.310;7.230;2023-03-01T04:41:11;51172.44;;;-145.83;100.00
7730;BME280;3908;52.310;7.230;2023-03-01T04:43:59;51143.09;;;-145.83;100.00
7730;BME280;3908;52.310;7.230;2023-03-01T04:46:48;51172.44;;;-145.83;100.00
7730;BME280;3908;52.310;7.230;2023-03-01T04:49:35;51180.25;;;-145.83;100.00
7730;BME280;3908;52.310;7.230;2023-03-01T04:52:22;51154.84;;;-145.83;100.00
7730;BME280;3908;52.310;7.230;2023-03-01T04:55:10;51172.44;;;-145.83;100.00
7730;BME280;3908;52.310;7.230;2023-03-01T04:57:58;51168.53;;;-145.83;100.00
7730;BME280;3908;52.310;7.230;2023-03-01T05:00:46;51158.75;;;-145.83;100.00
7730;BME280;3908;52.310;7.230;2023-03-01T05:03:33;51158.75;;;-145.83;100.00
7730;BME280;3908;52.310;7.230;2023-03-01T05:06:22;51160.69;;;-145.83;100.00
7730;BME280;3908;52.310;7.230;2023-03-01T05:09:09;51182.22;;;-145.83;100.00
7730;BME280;3908;52.310;7.230;2023-03-01T05:11:56;51186.13;;;-145.83;100.00
7730;BME280;3908;52.310;7.230;2023-03-01T05:14:43;51160.69;;;-145.83;100.00
7730;BME280;3908;52.310;7.230;2023-03-01T05:17:32;51160.69;;;-145.83;100.00
7730;BME280;3908;52.310;7.230;2023-03-01T05:20:19;51135.28;;;-145.83;100.00
7730;BME280;3908;52.310;7.230;2023-03-01T05:23:09;51176.34;;;-145.83;100.00
7730;BME280;3908;52.310;7.230;2023-03-01T05:25:57;51143.09;;;-145.83;100.00
7730;BME280;3908;52.310;7.230;2023-03-01T05:28:45;51168.53;;;-145.83;100.00
7730;BME280;3908;52.310;7.230;2023-03-01T05:31:32;51158.75;;;-145.83;100.00
7730;BME280;3908;52.310;7.230;2023-03-01T05:34:23;51174.41;;;-145.83;100.00
7730;BME280;3908;52.310;7.230;2023-03-01T05:37:11;51178.31;;;-145.83;100.00
7730;BME280;3908;52.310;7.230;2023-03-01T05:39:58;51147.00;;;-145.83;100.00
7730;BME280;3908;52.310;7.230;2023-03-01T05:42:46;51193.97;;;-145.83;100.00
7730;BME280;3908;52.310;7.230;2023-03-01T05:45:35;51172.44;;;-145.83;100.00
7730;BME280;3908;52.310;7.230;2023-03-01T05:48:23;51174.41;;;-145.83;100.00
7730;BME280;3908;52.310;7.230;2023-03-01T05:51:11;51156.78;;;-145.83;100.00
7730;BME280;3908;52.310;7.230;2023-03-01T05:53:58;51125.50;;;-145.83;100.00
7730;BME280;3908;52.310;7.230;2023-03-01T05:56:45;51158.75;;;-145.83;100.00
7730;BME280;3908;52.310;7.230;2023-03-01T05:59:32;51178.31;;;-145.83;100.00
7730;BME280;3908;52.310;7.230;2023-03-01T06:02:20;51164.63;;;-145.83;100.00
7730;BME280;3908;52.310;7.230;2023-03-01T06:05:09;51129.41;;;-145.83;100.00
7730;BME280;3908;52.310;7.230;2023-03-01T06:08:00;51162.66;;;-145.83;100.00
7730;BME280;3908;52.310;7.230;2023-03-01T06:10:47;51152.88;;;-145.83;100.00
7730;BME280;3908;52.310;7.230;2023-03-01T06:13:34;51178.31;;;-145.83;100.00
7730;BME280;3908;52.310;7.230;2023-03-01T06:16:21;51172.44;;;-145.83;100.00
7730;BME280;3908;52.310;7.230;2023-03-01T06:19:08;51127.44;;;-145.83;100.00
7730;BME280;3908;52.310;7.230;2023-03-01T06:21:55;51141.13;;;-145.83;100.00
7730;BME280;3908;52.310;7.230;2023-03-01T06:24:44;51190.03;;;-145.83;100.00
7730;BME280;3908;52.310;7.230;2023-03-01T06:27:31;51152.88;;;-145.83;100.00
7730;BME280;3908;52.310;7.230;2023-03-01T06:30:19;51158.75;;;-145.83;100.00
7730;BME280;3908;52.310;7.230;2023-03-01T06:33:06;51139.19;;;-145.83;100.00
7730;BME280;3908;52.310;7.230;2023-03-01T06:35:54;51096.16;;;-145.83;100.00
7730;BME280;3908;52.310;7.230;2023-03-01T06:38:42;51135.28;;;-145.83;100.00
7730;BME280;3908;52.310;7.230;2023-03-01T06:41:31;51166.56;;;-145.83;100.00
7730;BME280;3908;52.310;7.230;2023-03-01T06:44:19;51135.28;;;-145.83;100.00
7730;BME280;3908;52.310;7.230;2023-03-01T06:47:06;51192.00;;;-145.83;100.00
7730;BME280;3908;52.310;7.230;2023-03-01T06:49:53;51162.66;;;-145.83;100.00
7730;BME280;3908;52.310;7.230;2023-03-01T06:52:41;51150.91;;;-145.83;100.00
7730;BME280;3908;52.310;7.230;2023-03-01T06:55:29;51150.91;;;-145.83;100.00
7730;BME280;3908;52.310;7.230;2023-03-01T06:58:18;51184.19;;;-145.83;100.00
7730;BME280;3908;52.310;7.230;2023-03-01T07:01:06;51170.47;;;-145.83;100.00
7730;BME280;3908;52.310;7.230;2023-03-01T07:03:55;51170.47;;;-145.83;100.00
7730;BME280;3908;52.310;7.230;2023-03-01T07:06:43;51152.88;;;-145.83;100.00
7730;BME280;3908;52.310;7.230;2023-03-01T07:09:30;51166.56;;;-145.83;100.00
7730;BME280;3908;52.310;7.230;2023-03-01T07:12:17;51170.47;;;-145.83;100.00
7730;BME280;3908;52.310;7.230;2023-03-01T07:15:09;51190.03;;;-145.83;100.00
7730;BME280;3908;52.310;7.230;2023-03-01T07:17:57;51188.09;;;-145.83;100.00
7730;BME280;3908;52.310;7.230;2023-03-01T07:20:45;51152.88;;;-145.83;100.00
7730;BME280;3908;52.310;7.230;2023-03-01T07:23:33;51166.56;;;-145.83;100.00
7730;BME280;3908;52.310;7.230;2023-03-01T07:26:21;51170.47;;;-145.83;100.00
7730;BME280;3908;52.310;7.230;2023-03-01T07:29:09;51215.47;;;-145.83;100.00
7730;BME280;3908;52.310;7.230;2023-03-01T07:31:59;51156.78;;;-145.83;100.00
7730;BME280;3908;52.310;7.230;2023-03-01T07:34:46;51199.81;;;-145.83;100.00
7730;BME280;3908;52.310;7.230;2023-03-01T07:37:34;51193.97;;;-145.83;100.00
7730;BME280;3908;52.310;7.230;2023-03-01T07:40:22;51164.63;;;-145.83;100.00
7730;BME280;3908;52.310;7.230;2023-03-01T07:43:09;51207.66;;;-145.83;100.00
7730;BME280;3908;52.310;7.230;2023-03-01T07:45:58;51211.56;;;-145.83;100.00
7730;BME280;3908;52.310;7.230;2023-03-01T07:48:47;51221.34;;;-145.83;100.00
7730;BME280;3908;52.310;7.230;2023-03-01T07:51:34;51223.28;;;-145.83;100.00
7730;BME280;3908;52.310;7.230;2023-03-01T07:54:22;51199.81;;;-145.83;100.00
7730;BME280;3908;52.310;7.230;2023-03-01T07:57:09;51240.91;;;-145.83;100.00
7730;BME280;3908;52.310;7.230;2023-03-01T07:59:58;51227.22;;;-145.83;100.00
7730;BME280;3908;52.310;7.230;2023-03-01T08:02:50;51229.16;;;-145.83;100.00
7730;BME280;3908;52.310;7.230;2023-03-01T08:05:39;51199.81;;;-145.83;99.68
7730;BME280;3908;52.310;7.230;2023-03-01T08:08:26;51223.28;;;-145.83;97.17
7730;BME280;3908;52.310;7.230;2023-03-01T08:11:14;51250.69;;;-145.83;93.90
7730;BME280;3908;52.310;7.230;2023-03-01T08:14:01;51227.22;;;-145.83;93.87
7730;BME280;3908;52.310;7.230;2023-03-01T08:16:50;51242.84;;;-145.83;91.88
7730;BME280;3908;52.310;7.230;2023-03-01T08:19:40;51262.44;;;-145.83;90.03
7730;BME280;3908;52.310;7.230;2023-03-01T08:22:28;51219.38;;;-145.83;88.95
7730;BME280;3908;52.310;7.230;2023-03-01T08:25:16;51256.56;;;-145.83;88.06
7730;BME280;3908;52.310;7.230;2023-03-01T08:28:03;51233.06;;;-145.83;86.92
7730;BME280;3908;52.310;7.230;2023-03-01T08:30:50;51240.91;;;-145.83;84.55
7730;BME280;3908;52.310;7.230;2023-03-01T08:33:38;51235.03;;;-145.83;85.17
7730;BME280;3908;52.310;7.230;2023-03-01T08:36:27;51223.28;;;-145.83;83.82
7730;BME280;3908;52.310;7.230;2023-03-01T08:39:18;51248.72;;;-145.83;84.36
7730;BME280;3908;52.310;7.230;2023-03-01T08:42:05;51246.78;;;-145.83;82.29
7730;BME280;3908;52.310;7.230;2023-03-01T08:44:52;51217.44;;;-145.83;79.66
7730;BME280;3908;52.310;7.230;2023-03-01T08:47:39;51262.44;;;-145.83;80.66
7730;BME280;3908;52.310;7.230;2023-03-01T08:50:26;51252.66;;;-145.83;77.53
7730;BME280;3908;52.310;7.230;2023-03-01T08:53:13;51258.50;;;-145.83;73.22
7730;BME280;3908;52.310;7.230;2023-03-01T08:56:02;51242.84;;;-145.83;75.01
7730;BME280;3908;52.310;7.230;2023-03-01T08:58:49;51262.44;;;-145.83;71.41
7730;BME280;3908;52.310;7.230;2023-03-01T09:01:36;51256.56;;;-145.83;68.99
7730;BME280;3908;52.310;7.230;2023-03-01T09:04:24;51250.69;;;-145.83;69.11
7730;BME280;3908;52.310;7.230;2023-03-01T09:07:15;51240.91;;;-145.83;66.93
7730;BME280;3908;52.310;7.230;2023-03-01T09:10:02;51248.72;;;-145.83;65.35
7730;BME280;3908;52.310;7.230;2023-03-01T09:12:51;51264.38;;;-145.83;65.37
7730;BME280;3908;52.310;7.230;2023-03-01T09:15:38;51252.66;;;-145.83;62.63
7730;BME280;3908;52.310;7.230;2023-03-01T09:18:26;51270.25;;;-145.83;62.76
7730;BME280;3908;52.310;7.230;2023-03-01T09:21:14;51272.22;;;-145.83;61.77
7730;BME280;3908;52.310;7.230;2023-03-01T09:24:01;51278.06;;;-145.83;60.70
7730;BME280;3908;52.310;7.230;2023-03-01T09:26:48;51309.38;;;-145.83;60.47
7730;BME280;3908;52.310;7.230;2023-03-01T09:29:37;51260.47;;;-145.83;60.10
7730;BME280;3908;52.310;7.230;2023-03-01T09:32:24;51256.56;;;-145.83;58.25
7730;BME280;3908;52.310;7.230;2023-03-01T09:35:11;51285.91;;;-145.83;57.52
7730;BME280;3908;52.310;7.230;2023-03-01T09:38:00;51283.94;;;-145.83;57.85
7730;BME280;3908;52.310;7.230;2023-03-01T09:40:48;51325.03;;;-145.83;55.67
7730;BME280;3908;52.310;7.230;2023-03-01T09:43:42;51248.72;;;-145.83;56.29
7730;BME280;3908;52.310;7.230;2023-03-01T09:46:37;51325.03;;;-145.83;55.34
7730;BME280;3908;52.310;7.230;2023-03-01T09:49:28;51270.25;;;-145.83;55.34
7730;BME280;3908;52.310;7.230;2023-03-01T09:52:23;51281.97;;;-145.83;54.84
7730;BME280;3908;52.310;7.230;2023-03-01T09:55:14;51262.44;;;-145.83;53.91
7730;BME280;3908;52.310;7.230;2023-03-01T09:58:13;51264.38;;;-145.83;53.62
7730;BME280;3908;52.310;7.230;2023-03-01T10:01:12;51268.28;;;-145.83;52.54
7730;BME280;3908;52.310;7.230;2023-03-01T10:04:13;51268.28;;;-145.83;52.18
7730;BME280;3908;52.310;7.230;2023-03-01T10:07:17;51266.34;;;-145.83;51.72
7730;BME280;3908;52.310;7.230;2023-03-01T10:10:08;51254.59;;;-145.83;51.28
7730;BME280;3908;52.310;7.230;2023-03-01T10:13:13;51248.72;;;-145.83;51.71
7730;BME280;3908;52.310;7.230;2023-03-01T10:16:06;51315.25;;;-145.83;50.36
7730;BME280;3908;52.310;7.230;2023-03-01T10:19:00;51260.47;;;-145.83;50.62
7730;BME280;3908;52.310;7.230;2023-03-01T10:21:51;51301.53;;;-145.83;52.03
7730;BME280;3908;52.310;7.230;2023-03-01T10:24:38;51301.53;;;-145.83;48.88
7730;BME280;3908;52.310;7.230;2023-03-01T10:27:29;51323.06;;;-145.83;49.13
7730;BME280;3908;52.310;7.230;2023-03-01T10:30:31;51315.25;;;-145.83;48.77
7730;BME280;3908;52.310;7.230;2023-03-01T10:33:22;51295.69;;;-145.83;49.44
7730;BME280;3908;52.310;7.230;2023-03-01T10:36:10;51262.44;;;-145.83;47.84
7730;BME280;3908;52.310;7.230;2023-03-01T10:39:10;51289.81;;;-145.83;48.85
7730;BME280;3908;52.310;7.230;2023-03-01T10:42:00;51293.72;;;-145.83;50.21
7730;BME280;3908;52.310;7.230;2023-03-01T10:44:48;51270.25;;;-145.83;50.02
7730;BME280;3908;52.310;7.230;2023-03-01T10:47:36;51262.44;;;-145.83;49.32
7730;BME280;3908;52.310;7.230;2023-03-01T10:50:23;51274.16;;;-145.83;49.11
7730;BME280;3908;52.310;7.230;2023-03-01T10:53:24;51291.75;;;-145.83;49.61
7730;BME280;3908;52.310;7.230;2023-03-01T10:56:14;51285.91;;;-145.83;48.11
7730;BME280;3908;52.310;7.230;2023-03-01T10:59:04;51258.50;;;-145.83;51.61
7730;BME280;3908;52.310;7.230;2023-03-01T11:02:14;51311.31;;;-145.83;49.48
7730;BME280;3908;52.310;7.230;2023-03-01T11:05:18;51299.59;;;-145.83;47.95
7730;BME280;3908;52.310;7.230;2023-03-01T11:08:09;51258.50;;;-145.83;48.97
7730;BME280;3908;52.310;7.230;2023-03-01T11:11:29;51291.75;;;-145.83;47.94
7730;BME280;3908;52.310;7.230;2023-03-01T11:14:20;51281.97;;;-145.83;48.67
7730;BME280;3908;52.310;7.230;2023-03-01T11:17:15;51283.94;;;-145.83;48.35
7730;BME280;3908;52.310;7.230;2023-03-01T11:20:17;51293.72;;;-145.83;49.08
7730;BME280;3908;52.310;7.230;2023-03-01T11:23:10;51248.72;;;-145.83;48.80
7730;BME280;3908;52.310;7.230;2023-03-01T11:26:05;51270.25;;;-145.83;49.20
7730;BME280;3908;52.310;7.230;2023-03-01T11:28:58;51295.69;;;-145.83;49.27
7730;BME280;3908;52.310;7.230;2023-03-01T11:31:48;51309.38;;;-145.83;49.08
7730;BME280;3908;52.310;7.230;2023-03-01T11:34:40;51326.97;;;-145.83;50.33
7730;BME280;3908;52.310;7.230;2023-03-01T11:37:35;51299.59;;;-145.83;49.44
7730;BME280;3908;52.310;7.230;2023-03-01T11:40:27;51252.66;;;-145.83;49.12
7730;BME280;3908;52.310;7.230;2023-03-01T11:43:20;51264.38;;;-145.83;48.09
7730;BME280;3908;52.310;7.230;2023-03-01T11:52:54;51295.69;;;-145.83;45.63
7730;BME280;3908;52.310;7.230;2023-03-01T11:56:06;51256.56;;;-145.83;46.54
7730;BME280;3908;52.310;7.230;2023-03-01T11:59:25;51293.72;;;-145.83;46.69
7730;BME280;3908;52.310;7.230;2023-03-01T12:02:36;51326.97;;;-145.83;45.76
7730;BME280;3908;52.310;7.230;2023-03-01T12:05:51;51256.56;;;-145.83;46.07
7730;BME280;3908;52.310;7.230;2023-03-01T12:08:49;51285.91;;;-145.83;46.30
7730;BME280;3908;52.310;7.230;2023-03-01T12:11:45;51326.97;;;-145.83;45.94
7730;BME280;3908;52.310;7.230;2023-03-01T12:14:53;51285.91;;;-145.83;46.26
7730;BME280;3908;52.310;7.230;2023-03-01T12:17:57;51270.25;;;-145.83;46.40
7730;BME280;3908;52.310;7.230;2023-03-01T12:20:58;51280.03;;;-145.83;44.41
7730;BME280;3908;52.310;7.230;2023-03-01T12:24:07;51287.84;;;-145.83;44.88
7730;BME280;3908;52.310;7.230;2023-03-01T12:27:11;51326.97;;;-145.83;43.78
7730;BME280;3908;52.310;7.230;2023-03-01T12:30:13;51297.63;;;-145.83;44.21
7730;BME280;3908;52.310;7.230;2023-03-01T12:33:15;51315.25;;;-145.83;44.46
7730;BME280;3908;52.310;7.230;2023-03-01T12:36:22;51283.94;;;-145.83;44.49
7730;BME280;3908;52.310;7.230;2023-03-01T12:39:24;51281.97;;;-145.83;44.40
7730;BME280;3908;52.310;7.230;2023-03-01T12:42:22;51289.81;;;-145.83;44.94
7730;BME280;3908;52.310;7.230;2023-03-01T12:45:43;51291.75;;;-145.83;45.34
7730;BME280;3908;52.310;7.230;2023-03-01T12:48:40;51280.03;;;-145.83;46.33
7730;BME280;3908;52.310;7.230;2023-03-01T12:51:31;51311.31;;;-145.83;46.34
7730;BME280;3908;52.310;7.230;2023-03-01T12:54:25;51317.19;;;-145.83;46.23
7730;BME280;3908;52.310;7.230;2023-03-01T12:57:18;51307.41;;;-145.83;44.94
7730;BME280;3908;52.310;7.230;2023-03-01T13:00:21;51278.06;;;-145.83;45.12
7730;BME280;3908;52.310;7.230;2023-03-01T13:03:20;51328.94;;;-145.83;45.88
7730;BME280;3908;52.310;7.230;2023-03-01T13:06:17;51295.69;;;-145.83;44.83
7730;BME280;3908;52.310;7.230;2023-03-01T13:09:14;51258.50;;;-145.83;45.16
7730;BME280;3908;52.310;7.230;2023-03-01T13:15:33;51313.28;;;-145.83;44.00
7730;BME280;3908;52.310;7.230;2023-03-01T13:18:32;51299.59;;;-145.83;43.56
7730;BME280;3908;52.310;7.230;2023-03-01T13:21:31;51328.94;;;-145.83;43.66
7730;BME280;3908;52.310;7.230;2023-03-01T13:24:29;51293.72;;;-145.83;44.13
7730;BME280;3908;52.310;7.230;2023-03-01T13:27:23;51334.81;;;-145.83;44.99
7730;BME280;3908;52.310;7.230;2023-03-01T13:30:41;51293.72;;;-145.83;43.86
7730;BME280;3908;52.310;7.230;2023-03-01T13:33:40;51325.03;;;-145.83;42.30
7730;BME280;3908;52.310;7.230;2023-03-01T13:36:48;51287.84;;;-145.83;42.72
7730;BME280;3908;52.310;7.230;2023-03-01T13:39:40;51307.41;;;-145.83;42.89
7730;BME280;3908;52.310;7.230;2023-03-01T13:42:33;51301.53;;;-145.83;43.63
7730;BME280;3908;52.310;7.230;2023-03-01T13:45:32;51315.25;;;-145.83;43.28
7730;BME280;3908;52.310;7.230;2023-03-01T13:48:25;51307.41;;;-145.83;43.54
7730;BME280;3908;52.310;7.230;2023-03-01T13:51:12;51262.44;;;-145.83;43.06
7730;BME280;3908;52.310;7.230;2023-03-01T13:54:01;51321.09;;;-145.83;43.20
7730;BME280;3908;52.310;7.230;2023-03-01T13:56:49;51340.69;;;-145.83;42.66
7730;BME280;3908;52.310;7.230;2023-03-01T13:59:47;51281.97;;;-145.83;42.99
7730;BME280;3908;52.310;7.230;2023-03-01T14:02:35;51332.84;;;-145.83;43.46
7730;BME280;3908;52.310;7.230;2023-03-01T14:05:22;51305.47;;;-145.83;43.43
7730;BME280;3908;52.310;7.230;2023-03-01T14:08:28;51280.03;;;-145.83;44.07
7730;BME280;3908;52.310;7.230;2023-03-01T14:11:49;51289.81;;;-145.83;43.57
7730;BME280;3908;52.310;7.230;2023-03-01T14:14:45;51311.31;;;-145.83;43.77
7730;BME280;3908;52.310;7.230;2023-03-01T14:17:44;51295.69;;;-145.83;44.75
7730;BME280;3908;52.310;7.230;2023-03-01T14:20:39;51291.75;;;-145.83;45.06
7730;BME280;3908;52.310;7.230;2023-03-01T14:23:26;51274.16;;;-145.83;45.23
7730;BME280;3908;52.310;7.230;2023-03-01T14:26:20;51295.69;;;-145.83;45.56
7730;BME280;3908;52.310;7.230;2023-03-01T14:32:12;51280.03;;;-145.83;46.74
7730;BME280;3908;52.310;7.230;2023-03-01T14:35:20;51336.75;;;-145.83;46.17
7730;BME280;3908;52.310;7.230;2023-03-01T14:38:20;51293.72;;;-145.83;46.53
7730;BME280;3908;52.310;7.230;2023-03-01T14:41:11;51297.63;;;-145.83;46.51
7730;BME280;3908;52.310;7.230;2023-03-01T14:44:05;51266.34;;;-145.83;46.50
7730;BME280;3908;52.310;7.230;2023-03-01T14:46:54;51291.75;;;-145.83;47.10
7730;BME280;3908;52.310;7.230;2023-03-01T14:49:44;51303.50;;;-145.83;45.40
7730;BME280;3908;52.310;7.230;2023-03-01T14:52:34;51268.28;;;-145.83;46.17
7730;BME280;3908;52.310;7.230;2023-03-01T14:55:26;51272.22;;;-145.83;46.02
7730;BME280;3908;52.310;7.230;2023-03-01T14:58:17;51321.09;;;-145.83;46.85
7730;BME280;3908;52.310;7.230;2023-03-01T15:01:06;51301.53;;;-145.83;46.52
7730;BME280;3908;52.310;7.230;2023-03-01T15:03:54;51276.13;;;-145.83;46.47
7730;BME280;3908;52.310;7.230;2023-03-01T15:06:43;51252.66;;;-145.83;46.11
7730;BME280;3908;52.310;7.230;2023-03-01T15:09:32;51301.53;;;-145.83;46.56
7730;BME280;3908;52.310;7.230;2023-03-01T15:12:40;51315.25;;;-145.83;46.79
7730;BME280;3908;52.310;7.230;2023-03-01T15:15:36;51260.47;;;-145.83;47.20